createdAt,value
2023-05-13T00:01:02.658Z,99.70
2023-05-13T00:03:29.476Z,99.80
2023-05-13T00:05:56.332Z,99.70
2023-05-13T00:08:23.084Z,99.70
2023-05-13T00:10:51.148Z,99.90
2023-05-13T00:13:17.894Z,99.70
2023-05-13T00:15:44.635Z,99.80
2023-05-13T00:18:11.402Z,99.70
2023-05-13T00:20:38.146Z,99.80
2023-05-13T00:23:04.842Z,99.60
2023-05-13T00:25:31.560Z,99.60
2023-05-13T00:27:59.621Z,99.60
2023-05-13T00:30:26.402Z,99.40
2023-05-13T00:32:53.158Z,99.30
2023-05-13T00:35:19.980Z,99.30
2023-05-13T00:37:46.686Z,99.30
2023-05-13T00:40:20.214Z,99.30
2023-05-13T00:42:47.198Z,99.20
2023-05-13T00:45:15.538Z,99.00
2023-05-13T00:47:42.716Z,99.20
2023-05-13T00:50:10.943Z,99.10
2023-05-13T00:52:38.627Z,99.20
2023-05-13T00:55:06.330Z,99.00
2023-05-13T00:57:33.445Z,99.10
2023-05-13T01:00:00.581Z,99.00
2023-05-13T01:02:35.113Z,99.00
2023-05-13T01:05:09.409Z,99.00
2023-05-13T01:07:44.621Z,98.90
2023-05-13T01:10:30.168Z,98.90
2023-05-13T01:12:59.687Z,98.90
2023-05-13T01:15:27.566Z,99.10
2023-05-13T01:20:47.157Z,98.90
2023-05-13T01:23:15.242Z,99.00
2023-05-13T01:25:42.194Z,99.20
2023-05-13T01:28:09.693Z,99.00
2023-05-13T01:30:37.039Z,99.20
2023-05-13T01:33:05.062Z,99.10
2023-05-13T01:35:32.424Z,99.20
2023-05-13T01:38:00.232Z,99.30
2023-05-13T01:40:32.690Z,99.20
2023-05-13T01:43:00.256Z,99.40
2023-05-13T01:45:28.067Z,99.50
2023-05-13T01:47:54.971Z,99.40
2023-05-13T01:50:22.193Z,99.30
2023-05-13T01:52:49.186Z,99.30
2023-05-13T01:55:16.142Z,99.30
2023-05-13T01:57:44.291Z,99.20
2023-05-13T02:00:12.250Z,99.30
2023-05-13T02:02:39.098Z,99.50
2023-05-13T02:05:06.232Z,99.60
2023-05-13T02:07:34.176Z,99.70
2023-05-13T02:10:01.082Z,99.60
2023-05-13T02:12:27.938Z,99.30
2023-05-13T02:14:56.055Z,99.20
2023-05-13T02:17:23.007Z,99.30
2023-05-13T02:19:49.940Z,99.30
2023-05-13T02:22:16.686Z,99.30
2023-05-13T02:24:43.540Z,99.50
2023-05-13T02:27:10.299Z,99.70
2023-05-13T02:29:37.102Z,99.50
2023-05-13T02:32:06.009Z,99.40
2023-05-13T02:34:32.839Z,99.70
2023-05-13T02:36:59.634Z,99.80
2023-05-13T02:39:26.377Z,99.90
2023-05-13T02:41:53.163Z,99.90
2023-05-13T02:44:19.929Z,99.90
2023-05-13T02:46:46.792Z,99.90
2023-05-13T02:49:14.918Z,99.90
2023-05-13T02:51:41.698Z,99.90
2023-05-13T02:54:08.432Z,99.80
2023-05-13T02:56:35.176Z,99.90
2023-05-13T02:59:01.919Z,99.80
2023-05-13T03:01:28.745Z,99.80
2023-05-13T03:03:55.525Z,99.90
2023-05-13T03:06:23.640Z,99.90
2023-05-13T03:08:50.412Z,99.90
2023-05-13T03:11:17.171Z,99.90
2023-05-13T03:13:43.919Z,99.90
2023-05-13T03:16:10.760Z,99.90
2023-05-13T03:18:37.576Z,99.90
2023-05-13T03:21:04.548Z,99.90
2023-05-13T03:23:33.703Z,99.90
2023-05-13T03:26:00.509Z,99.90
2023-05-13T03:28:27.301Z,99.90
2023-05-13T03:30:54.079Z,99.90
2023-05-13T03:33:21.242Z,99.90
2023-05-13T03:35:48.236Z,99.90
2023-05-13T03:38:15.020Z,99.90
2023-05-13T03:40:43.108Z,99.90
2023-05-13T03:43:09.813Z,99.90
2023-05-13T03:45:36.535Z,99.90
2023-05-13T03:48:03.335Z,99.90
2023-05-13T03:50:30.198Z,99.90
2023-05-13T03:52:57.091Z,99.90
2023-05-13T03:55:23.979Z,99.90
2023-05-13T03:57:52.015Z,99.90
2023-05-13T04:00:19.062Z,99.90
2023-05-13T04:02:46.075Z,99.90
2023-05-13T04:05:13.069Z,99.90
2023-05-13T04:07:40.013Z,99.90
2023-05-13T04:10:08.948Z,99.90
2023-05-13T04:12:35.709Z,99.90
2023-05-13T04:15:04.481Z,99.90
2023-05-13T04:17:31.311Z,99.90
2023-05-13T04:19:58.154Z,99.90
2023-05-13T04:22:24.944Z,99.90
2023-05-13T04:24:51.735Z,99.90
2023-05-13T04:27:18.515Z,99.90
2023-05-13T04:29:45.297Z,99.90
2023-05-13T04:32:13.683Z,99.90
2023-05-13T04:34:40.496Z,99.90
2023-05-13T04:37:07.288Z,99.90
2023-05-13T04:39:34.032Z,99.90
2023-05-13T04:42:00.770Z,99.90
2023-05-13T04:44:27.576Z,99.90
2023-05-13T04:46:54.317Z,99.90
2023-05-13T04:49:22.421Z,99.90
2023-05-13T04:51:49.666Z,99.90
2023-05-13T04:54:17.036Z,99.90
2023-05-13T04:56:43.747Z,99.90
2023-05-13T04:59:10.475Z,99.90
2023-05-13T05:01:37.252Z,99.90
2023-05-13T05:04:05.173Z,99.90
2023-05-13T05:06:33.313Z,99.90
2023-05-13T05:09:00.091Z,99.90
2023-05-13T05:11:26.814Z,99.90
2023-05-13T05:13:53.533Z,99.90
2023-05-13T05:16:20.387Z,99.90
2023-05-13T05:18:47.330Z,99.90
2023-05-13T05:21:14.233Z,99.90
2023-05-13T05:23:42.314Z,99.90
2023-05-13T05:26:12.192Z,99.90
2023-05-13T05:28:39.545Z,99.90
2023-05-13T05:31:06.491Z,99.90
2023-05-13T05:33:33.324Z,99.90
2023-05-13T05:36:00.092Z,99.90
2023-05-13T05:38:26.971Z,99.90
2023-05-13T05:40:55.519Z,99.90
2023-05-13T05:43:22.304Z,99.90
2023-05-13T05:45:49.200Z,99.90
2023-05-13T05:48:16.036Z,99.90
2023-05-13T05:50:42.825Z,99.90
2023-05-13T05:53:09.601Z,99.90
2023-05-13T05:55:36.307Z,99.90
2023-05-13T05:58:04.631Z,99.90
2023-05-13T06:00:31.893Z,99.90
2023-05-13T06:02:58.780Z,99.90
2023-05-13T06:05:25.694Z,99.90
2023-05-13T06:07:52.432Z,99.90
2023-05-13T06:10:19.654Z,99.90
2023-05-13T06:12:46.557Z,99.90
2023-05-13T06:15:14.624Z,99.90
2023-05-13T06:17:41.466Z,99.90
2023-05-13T06:20:08.905Z,99.90
2023-05-13T06:22:35.644Z,99.90
2023-05-13T06:25:02.411Z,99.90
2023-05-13T06:27:29.185Z,99.90
2023-05-13T06:29:55.976Z,99.90
2023-05-13T06:32:24.070Z,99.90
2023-05-13T06:34:51.328Z,99.90
2023-05-13T06:37:18.487Z,99.90
2023-05-13T06:39:45.438Z,99.90
2023-05-13T06:42:14.102Z,99.90
2023-05-13T06:44:41.085Z,99.90
2023-05-13T06:47:08.773Z,99.90
2023-05-13T06:49:36.966Z,99.90
2023-05-13T06:52:03.902Z,99.90
2023-05-13T06:54:30.622Z,99.90
2023-05-13T06:56:57.416Z,99.90
2023-05-13T06:59:24.182Z,99.90
2023-05-13T07:01:50.995Z,99.90
2023-05-13T07:04:17.926Z,99.90
2023-05-13T07:06:46.091Z,99.90
2023-05-13T07:09:12.847Z,99.90
2023-05-13T07:11:39.701Z,99.90
2023-05-13T07:14:06.450Z,99.90
2023-05-13T07:16:33.197Z,99.90
2023-05-13T07:19:01.556Z,99.90
2023-05-13T07:21:29.431Z,99.90
2023-05-13T07:23:57.553Z,99.90
2023-05-13T07:26:24.389Z,99.90
2023-05-13T07:28:51.172Z,99.90
2023-05-13T07:31:18.060Z,99.90
2023-05-13T07:33:44.932Z,99.90
2023-05-13T07:36:11.672Z,99.90
2023-05-13T07:38:38.415Z,99.90
2023-05-13T07:41:06.638Z,99.90
2023-05-13T07:43:33.426Z,99.90
2023-05-13T07:46:00.262Z,99.90
2023-05-13T07:48:27.036Z,99.90
2023-05-13T07:50:54.003Z,99.90
2023-05-13T07:53:21.179Z,99.90
2023-05-13T07:55:47.920Z,99.90
2023-05-13T07:58:16.010Z,99.90
2023-05-13T08:00:42.768Z,99.90
2023-05-13T08:03:09.623Z,99.90
2023-05-13T08:05:36.490Z,99.90
2023-05-13T08:08:03.336Z,99.90
2023-05-13T08:10:30.162Z,99.90
2023-05-13T08:12:56.909Z,99.90
2023-05-13T08:15:25.951Z,99.90
2023-05-13T08:17:53.019Z,99.90
2023-05-13T08:20:20.059Z,99.90
2023-05-13T08:22:46.902Z,99.90
2023-05-13T08:25:13.708Z,99.90
2023-05-13T08:27:40.554Z,99.90
2023-05-13T08:30:08.623Z,99.90
2023-05-13T08:32:36.792Z,99.90
2023-05-13T08:35:03.768Z,99.90
2023-05-13T08:37:30.547Z,99.90
2023-05-13T08:39:57.311Z,99.90
2023-05-13T08:42:25.213Z,99.90
2023-05-13T08:44:52.405Z,99.90
2023-05-13T08:47:27.778Z,99.90
2023-05-13T08:49:56.636Z,99.90
2023-05-13T08:52:23.367Z,99.90
2023-05-13T08:54:50.234Z,99.90
2023-05-13T08:57:17.023Z,99.90
2023-05-13T08:59:43.772Z,99.90
2023-05-13T09:02:10.790Z,99.90
2023-05-13T09:04:40.447Z,99.90
2023-05-13T09:07:09.431Z,99.90
2023-05-13T09:09:36.512Z,99.90
2023-05-13T09:12:03.412Z,99.90
2023-05-13T09:14:30.779Z,99.90
2023-05-13T09:16:57.622Z,99.90
2023-05-13T09:19:25.268Z,99.90
2023-05-13T09:21:53.277Z,99.90
2023-05-13T09:24:21.491Z,99.90
2023-05-13T09:26:49.394Z,99.90
2023-05-13T09:29:23.768Z,99.90
2023-05-13T09:31:52.932Z,99.90
2023-05-13T09:34:26.130Z,99.90
2023-05-13T09:37:01.827Z,99.90
2023-05-13T09:39:33.466Z,99.90
2023-05-13T09:42:02.547Z,99.90
2023-05-13T09:44:30.654Z,99.90
2023-05-13T09:46:58.190Z,99.90
2023-05-13T09:49:26.838Z,99.90
2023-05-13T09:51:53.604Z,99.90
2023-05-13T09:54:20.343Z,99.90
2023-05-13T09:56:48.763Z,99.90
2023-05-13T09:59:16.103Z,99.90
2023-05-13T10:01:43.131Z,99.90
2023-05-13T10:04:10.276Z,99.90
2023-05-13T10:06:38.530Z,99.90
2023-05-13T10:09:07.847Z,99.90
2023-05-13T10:11:35.055Z,99.90
2023-05-13T10:14:06.011Z,99.90
2023-05-13T10:16:33.331Z,99.90
2023-05-13T10:19:02.303Z,99.90
2023-05-13T10:21:29.188Z,99.90
2023-05-13T10:23:56.831Z,99.90
2023-05-13T10:26:24.087Z,99.90
2023-05-13T10:28:51.000Z,99.90
2023-05-13T10:31:19.154Z,99.90
2023-05-13T10:33:46.038Z,99.90
2023-05-13T10:36:37.573Z,99.90
2023-05-13T10:39:27.366Z,99.90
2023-05-13T10:42:19.864Z,99.90
2023-05-13T10:44:46.682Z,99.90
2023-05-13T10:47:17.168Z,99.90
2023-05-13T10:49:50.466Z,99.90
2023-05-13T10:52:17.315Z,99.90
2023-05-13T10:54:44.122Z,99.90
2023-05-13T10:57:13.066Z,99.90
2023-05-13T11:00:16.452Z,99.90
2023-05-13T11:02:43.665Z,99.90
2023-05-13T11:05:19.336Z,99.90
2023-05-13T11:07:55.209Z,99.90
2023-05-13T11:10:25.884Z,99.90
2023-05-13T11:13:21.608Z,99.90
2023-05-13T11:15:51.797Z,99.90
2023-05-13T11:18:18.934Z,99.90
2023-05-13T11:20:52.469Z,99.90
2023-05-13T11:23:20.735Z,99.90
2023-05-13T11:26:08.925Z,99.90
2023-05-13T11:28:56.256Z,99.90
2023-05-13T11:31:26.240Z,99.90
2023-05-13T11:34:12.523Z,99.90
2023-05-13T11:36:40.890Z,99.90
2023-05-13T11:39:09.478Z,99.90
2023-05-13T11:41:36.875Z,99.90
2023-05-13T11:44:05.104Z,99.90
2023-05-13T11:46:33.301Z,99.90
2023-05-13T11:49:00.026Z,99.90
2023-05-13T11:51:26.857Z,99.90
2023-05-13T11:53:59.924Z,99.90
2023-05-13T11:56:26.808Z,99.90
2023-05-13T11:58:53.519Z,99.90
2023-05-13T12:01:20.327Z,99.90
2023-05-13T12:03:48.397Z,99.90
2023-05-13T12:06:15.668Z,99.90
2023-05-13T12:08:45.521Z,99.90
2023-05-13T12:11:12.806Z,99.90
2023-05-13T12:13:40.946Z,99.90
2023-05-13T12:16:08.638Z,99.90
2023-05-13T12:18:38.338Z,99.90
2023-05-13T12:21:16.839Z,99.90
2023-05-13T12:23:43.551Z,99.90
2023-05-13T12:26:11.722Z,99.90
2023-05-13T12:28:38.466Z,99.90
2023-05-13T12:31:05.731Z,99.90
2023-05-13T12:33:34.363Z,99.90
2023-05-13T12:36:18.264Z,99.90
2023-05-13T12:38:58.193Z,99.90
2023-05-13T12:41:28.312Z,99.90
2023-05-13T12:43:59.196Z,99.90
2023-05-13T12:46:26.209Z,99.90
2023-05-13T12:48:56.900Z,99.90
2023-05-13T12:51:25.389Z,99.90
2023-05-13T12:53:52.872Z,99.90
2023-05-13T12:56:19.952Z,99.90
2023-05-13T12:58:46.747Z,99.90
2023-05-13T13:01:13.527Z,99.90
2023-05-13T13:03:40.408Z,99.90
2023-05-13T13:06:08.523Z,99.90
2023-05-13T13:08:36.848Z,99.90
2023-05-13T13:11:03.705Z,99.90
2023-05-13T13:13:30.670Z,99.90
2023-05-13T13:15:58.238Z,99.90
2023-05-13T13:18:25.069Z,99.90
2023-05-13T13:20:52.057Z,99.90
2023-05-13T13:23:19.035Z,99.90
2023-05-13T13:25:47.313Z,99.90
2023-05-13T13:28:14.094Z,99.90
2023-05-13T13:30:40.890Z,99.90
2023-05-13T13:33:08.460Z,99.90
2023-05-13T13:35:36.520Z,99.90
2023-05-13T13:38:03.325Z,99.90
2023-05-13T13:40:30.221Z,99.90
2023-05-13T13:42:58.352Z,99.90
2023-05-13T13:45:25.151Z,99.90
2023-05-13T13:47:51.925Z,99.90
2023-05-13T13:50:18.770Z,99.90
2023-05-13T13:52:45.529Z,99.90
2023-05-13T13:55:12.329Z,99.90
2023-05-13T13:57:39.107Z,99.90
2023-05-13T14:00:08.645Z,99.90
2023-05-13T14:02:35.494Z,99.90
2023-05-13T14:05:02.395Z,99.90
2023-05-13T14:07:29.306Z,99.90
2023-05-13T14:09:56.125Z,99.90
2023-05-13T14:12:23.149Z,99.90
2023-05-13T14:14:49.921Z,99.90
2023-05-13T14:17:18.166Z,99.90
2023-05-13T14:19:44.896Z,99.90
2023-05-13T14:22:11.600Z,99.90
2023-05-13T14:24:38.399Z,99.90
2023-05-13T14:27:05.665Z,99.90
2023-05-13T14:29:32.393Z,99.90
2023-05-13T14:31:59.282Z,99.90
2023-05-13T14:34:27.387Z,99.90
2023-05-13T14:36:54.240Z,99.90
2023-05-13T14:39:20.994Z,99.90
2023-05-13T14:41:47.738Z,99.90
2023-05-13T14:44:14.540Z,99.90
2023-05-13T14:46:41.440Z,99.90
2023-05-13T14:49:08.384Z,99.90
2023-05-13T14:51:36.612Z,99.90
2023-05-13T14:54:04.021Z,99.90
2023-05-13T14:56:30.962Z,99.90
2023-05-13T14:58:58.008Z,99.90
2023-05-13T15:01:24.847Z,99.90
2023-05-13T15:03:51.646Z,99.90
2023-05-13T15:06:18.369Z,99.90
2023-05-13T15:08:46.463Z,99.90
2023-05-13T15:11:13.171Z,99.90
2023-05-13T15:13:39.907Z,99.90
2023-05-13T15:16:07.478Z,99.90
2023-05-13T15:18:34.347Z,99.90
2023-05-13T15:21:01.138Z,99.90
2023-05-13T15:23:27.993Z,99.90
2023-05-13T15:25:56.152Z,99.90
2023-05-13T15:28:22.896Z,99.90
2023-05-13T15:30:49.631Z,99.90
2023-05-13T15:33:16.654Z,99.90
2023-05-13T15:35:43.440Z,99.90
2023-05-13T15:38:10.148Z,99.90
2023-05-13T15:40:37.745Z,99.90
2023-05-13T15:43:06.799Z,99.90
2023-05-13T15:45:34.218Z,99.90
2023-05-13T15:48:01.115Z,99.90
2023-05-13T15:50:27.907Z,99.90
2023-05-13T15:52:54.655Z,99.90
2023-05-13T15:55:22.136Z,99.90
2023-05-13T15:57:50.291Z,99.90
2023-05-13T16:00:19.674Z,99.90
2023-05-13T16:02:46.687Z,99.90
2023-05-13T16:05:13.432Z,99.90
2023-05-13T16:07:40.143Z,99.90
2023-05-13T16:10:07.179Z,99.90
2023-05-13T16:12:34.479Z,99.90
2023-05-13T16:15:01.215Z,99.90
2023-05-13T16:17:29.440Z,99.90
2023-05-13T16:19:56.170Z,99.90
2023-05-13T16:22:28.100Z,99.90
2023-05-13T16:24:58.053Z,99.90
2023-05-13T16:27:24.755Z,99.90
2023-05-13T16:29:51.490Z,99.90
2023-05-13T16:32:18.260Z,99.90
2023-05-13T16:34:46.315Z,99.90
2023-05-13T16:37:13.086Z,99.90
2023-05-13T16:39:39.782Z,99.90
2023-05-13T16:42:06.754Z,99.90
2023-05-13T16:44:33.502Z,99.90
2023-05-13T16:47:00.237Z,99.90
2023-05-13T16:49:27.010Z,99.90
2023-05-13T16:51:55.177Z,99.90
2023-05-13T16:54:21.951Z,99.90
2023-05-13T16:56:48.690Z,99.90
2023-05-13T16:59:19.812Z,99.90
2023-05-13T17:01:46.680Z,99.90
2023-05-13T17:04:13.434Z,99.90
2023-05-13T17:06:40.285Z,99.90
2023-05-13T17:09:08.609Z,99.90
2023-05-13T17:11:35.618Z,99.90
2023-05-13T17:14:03.066Z,99.90
2023-05-13T17:16:29.862Z,99.90
2023-05-13T17:18:58.939Z,99.90
2023-05-13T17:21:26.363Z,99.90
2023-05-13T17:23:53.156Z,99.90
2023-05-13T17:26:21.318Z,99.90
2023-05-13T17:28:48.142Z,99.90
2023-05-13T17:31:14.955Z,99.90
2023-05-13T17:33:41.710Z,99.90
2023-05-13T17:36:08.844Z,99.90
2023-05-13T17:38:35.596Z,99.90
2023-05-13T17:41:02.401Z,99.90
2023-05-13T17:43:30.496Z,99.90
2023-05-13T17:45:57.276Z,99.90
2023-05-13T17:48:24.083Z,99.90
2023-05-13T17:50:50.985Z,99.90
2023-05-13T17:53:17.927Z,99.90
2023-05-13T17:55:44.740Z,99.90
2023-05-13T17:58:11.457Z,99.90
2023-05-13T18:00:39.530Z,99.90
2023-05-13T18:03:06.429Z,99.90
2023-05-13T18:05:33.444Z,99.90
2023-05-13T18:08:00.209Z,99.90
2023-05-13T18:10:27.002Z,99.90
2023-05-13T18:12:53.717Z,99.90
2023-05-13T18:15:20.677Z,99.90
2023-05-13T18:17:49.091Z,99.90
2023-05-13T18:20:15.966Z,99.90
2023-05-13T18:22:42.716Z,99.90
2023-05-13T18:25:10.295Z,99.90
2023-05-13T18:27:37.084Z,99.90
2023-05-13T18:30:04.495Z,99.90
2023-05-13T18:32:31.281Z,99.90
2023-05-13T18:34:59.430Z,99.90
2023-05-13T18:37:26.221Z,99.90
2023-05-13T18:39:53.010Z,99.90
2023-05-13T18:42:19.783Z,99.90
2023-05-13T18:44:46.556Z,99.90
2023-05-13T18:47:13.298Z,99.90
2023-05-13T18:49:40.034Z,99.90
2023-05-13T18:52:08.251Z,99.90
2023-05-13T18:54:35.129Z,99.90
2023-05-13T18:57:02.017Z,99.90
2023-05-13T18:59:28.826Z,99.90
2023-05-13T19:01:55.760Z,99.90
2023-05-13T19:04:22.910Z,99.90
2023-05-13T19:06:50.203Z,99.90
2023-05-13T19:09:18.306Z,99.90
2023-05-13T19:11:45.051Z,99.90
2023-05-13T19:14:11.802Z,99.90
2023-05-13T19:16:38.707Z,99.90
2023-05-13T19:19:05.667Z,99.90
2023-05-13T19:21:32.913Z,99.90
2023-05-13T19:23:59.656Z,99.90
2023-05-13T19:26:27.958Z,99.90
2023-05-13T19:28:55.165Z,99.90
2023-05-13T19:31:22.019Z,99.90
2023-05-13T19:33:49.012Z,99.90
2023-05-13T19:36:15.829Z,99.90
2023-05-13T19:38:42.594Z,99.90
2023-05-13T19:41:09.357Z,99.90
2023-05-13T19:43:37.485Z,99.90
2023-05-13T19:46:04.273Z,99.90
2023-05-13T19:48:31.057Z,99.90
2023-05-13T19:50:57.856Z,99.90
2023-05-13T19:53:24.778Z,99.90
2023-05-13T19:55:51.553Z,99.90
2023-05-13T19:58:18.393Z,99.90
2023-05-13T20:00:46.720Z,99.90
2023-05-13T20:03:13.628Z,99.90
2023-05-13T20:05:40.569Z,99.90
2023-05-13T20:08:07.521Z,99.90
2023-05-13T20:10:34.382Z,99.90
2023-05-13T20:13:01.149Z,99.90
2023-05-13T20:15:27.925Z,99.90
2023-05-13T20:17:56.104Z,99.90
2023-05-13T20:20:23.344Z,99.90
2023-05-13T20:22:50.356Z,99.90
2023-05-13T20:25:17.259Z,99.90
2023-05-13T20:27:44.049Z,99.90
2023-05-13T20:30:12.121Z,99.90
2023-05-13T20:32:38.933Z,99.90
2023-05-13T20:35:08.067Z,99.90
2023-05-13T20:37:35.151Z,99.90
2023-05-13T20:40:01.932Z,99.90
2023-05-13T20:42:28.747Z,99.90
2023-05-13T20:44:55.516Z,99.90
2023-05-13T20:47:22.313Z,99.90
2023-05-13T20:49:49.061Z,99.90
2023-05-13T20:52:17.296Z,99.90
2023-05-13T20:54:44.161Z,99.90
2023-05-13T20:57:10.942Z,99.90
2023-05-13T20:59:37.685Z,99.90
2023-05-13T21:02:04.911Z,99.90
2023-05-13T21:04:31.814Z,99.90
2023-05-13T21:06:58.584Z,99.90
2023-05-13T21:09:26.771Z,99.90
2023-05-13T21:11:53.662Z,99.90
2023-05-13T21:14:20.407Z,99.90
2023-05-13T21:16:47.141Z,99.90
2023-05-13T21:19:19.255Z,99.90
2023-05-13T21:21:46.073Z,99.90
2023-05-13T21:24:13.251Z,99.90
2023-05-13T21:26:41.322Z,99.90
2023-05-13T21:29:08.167Z,99.90
2023-05-13T21:31:35.042Z,99.90
2023-05-13T21:34:01.836Z,99.90
2023-05-13T21:36:28.672Z,99.90
2023-05-13T21:38:55.394Z,99.90
2023-05-13T21:41:22.134Z,99.90
2023-05-13T21:43:50.169Z,99.90
2023-05-13T21:46:16.920Z,99.90
2023-05-13T21:48:43.724Z,99.90
2023-05-13T21:51:10.465Z,99.90
2023-05-13T21:53:37.318Z,99.90
2023-05-13T21:56:04.480Z,99.90
2023-05-13T21:58:31.205Z,99.90
2023-05-13T22:00:59.408Z,99.90
2023-05-13T22:03:26.430Z,99.90
2023-05-13T22:05:53.224Z,99.90
2023-05-13T22:08:20.021Z,99.90
2023-05-13T22:10:46.758Z,99.90
2023-05-13T22:13:13.508Z,99.90
2023-05-13T22:15:40.303Z,99.90
2023-05-13T22:18:08.593Z,99.90
2023-05-13T22:20:35.413Z,99.90
2023-05-13T22:23:02.098Z,99.90
2023-05-13T22:25:28.890Z,99.90
2023-05-13T22:27:55.660Z,99.90
2023-05-13T22:30:23.008Z,99.90
2023-05-13T22:32:50.233Z,99.90
2023-05-13T22:35:18.415Z,99.90
2023-05-13T22:37:45.219Z,99.90
2023-05-13T22:40:13.039Z,99.90
2023-05-13T22:42:39.792Z,99.90
2023-05-13T22:45:07.500Z,99.90
2023-05-13T22:47:35.370Z,99.90
2023-05-13T22:50:02.556Z,99.90
2023-05-13T22:52:30.741Z,99.90
2023-05-13T22:54:57.505Z,99.90
2023-05-13T22:57:24.362Z,99.90
2023-05-13T22:59:51.087Z,99.90
2023-05-13T23:02:17.868Z,99.90
2023-05-13T23:04:44.653Z,99.90
2023-05-13T23:07:11.345Z,99.90
2023-05-13T23:09:39.506Z,99.90
2023-05-13T23:12:07.213Z,99.90
2023-05-13T23:14:33.947Z,99.90
2023-05-13T23:17:00.683Z,99.90
2023-05-13T23:19:27.581Z,99.90
2023-05-13T23:21:54.295Z,99.90
2023-05-13T23:24:21.056Z,99.90
2023-05-13T23:26:50.158Z,99.90
2023-05-13T23:29:16.877Z,99.90
2023-05-13T23:31:43.621Z,99.90
2023-05-13T23:34:10.348Z,99.90
2023-05-13T23:36:37.178Z,99.90
2023-05-13T23:39:03.986Z,99.90
2023-05-13T23:41:30.695Z,99.90
2023-05-13T23:43:58.791Z,99.90
2023-05-13T23:46:25.790Z,99.90
2023-05-13T23:48:52.736Z,99.90
2023-05-13T23:51:19.489Z,99.90
2023-05-13T23:53:46.292Z,99.90
2023-05-13T23:56:13.070Z,99.90
2023-05-13T23:58:39.834Z,99.90
